Back to Top

Language: 

My Weather Underground Personal Weather Station Historical Data with Graphs...

Delerius Weather Station Historical Data
Daily Summary for April 13, 2017 Units:  English    Metric   Both
« Previous Day
Next Day »
Daily Weekly Monthly Yearly Custom
  High: Low: Average:
Temperature: 54.7 °F 42.4 °F 48 °F
Dew Point: 42.2 °F 37.4 °F 39.7 °F
Humidity: 86 % 59 % 74 %
Wind Speed: 13.0 mph 0.0 mph 8 mph
Wind Gust: 24.0 mph - -
Wind:- - WNW
Pressure: 30.04 in 29.99 in -
Precipitation: 0.00 in    
Historical Graphs
 
 
Tabular Data for April 13, 2017
Time Temperature Dew Point Pressure Wind Wind Speed Wind Gust Humidity Rainfall Rate (Hourly) solar Conditions
00:04 44.6 °F 39.1 °F 30.00 in WNW 12.0 mph 20.0 mph 81 % 0.00 in 0 W/m2
00:09 44.6 °F 39.1 °F 29.99 in WNW 10.0 mph 20.0 mph 81 % 0.00 in 0 W/m2
00:14 44.4 °F 39.0 °F 29.99 in WNW 9.0 mph 18.0 mph 81 % 0.00 in 0 W/m2
00:19 44.4 °F 39.0 °F 29.99 in WNW 10.0 mph 18.0 mph 81 % 0.00 in 0 W/m2
00:24 44.4 °F 39.0 °F 29.99 in WNW 10.0 mph 20.0 mph 81 % 0.00 in 0 W/m2
00:29 44.4 °F 39.0 °F 29.99 in WNW 10.0 mph 20.0 mph 81 % 0.00 in 0 W/m2
00:34 44.4 °F 39.0 °F 30.00 in WNW 10.0 mph 20.0 mph 81 % 0.00 in 0 W/m2
00:39 44.4 °F 39.0 °F 30.00 in WNW 10.0 mph 20.0 mph 81 % 0.00 in 0 W/m2
00:44 44.4 °F 39.0 °F 30.00 in West 10.0 mph 20.0 mph 81 % 0.00 in 0 W/m2
00:49 44.4 °F 39.0 °F 30.00 in West 8.0 mph 15.0 mph 81 % 0.00 in 0 W/m2
00:54 44.2 °F 38.8 °F 30.00 in West 5.0 mph 12.0 mph 81 % 0.00 in 0 W/m2
00:59 44.2 °F 38.8 °F 30.00 in WNW 6.0 mph 14.0 mph 81 % 0.00 in 0 W/m2
01:04 44.2 °F 38.8 °F 30.00 in WNW 6.0 mph 14.0 mph 81 % 0.00 in 0 W/m2
01:09 44.2 °F 38.8 °F 30.00 in WNW 3.0 mph 12.0 mph 81 % 0.00 in 0 W/m2
01:14 44.1 °F 38.6 °F 30.01 in West 1.0 mph 7.0 mph 81 % 0.00 in 0 W/m2
01:19 43.9 °F 38.4 °F 30.01 in Calm   2.0 mph 81 % 0.00 in 0 W/m2
01:24 43.5 °F 37.8 °F 30.01 in Calm   2.0 mph 80 % 0.00 in 0 W/m2
01:29 43.3 °F 37.9 °F 30.01 in Calm   6.0 mph 81 % 0.00 in 0 W/m2
01:35 43.2 °F 37.4 °F 30.01 in WNW 3.0 mph 11.0 mph 80 % 0.00 in 0 W/m2
01:40 43.2 °F 37.4 °F 30.01 in WNW 5.0 mph 11.0 mph 80 % 0.00 in 0 W/m2
01:45 43.2 °F 37.4 °F 30.01 in WNW 7.0 mph 15.0 mph 80 % 0.00 in 0 W/m2
01:50 43.2 °F 37.4 °F 30.00 in WNW 8.0 mph 15.0 mph 80 % 0.00 in 0 W/m2
01:55 43.3 °F 37.9 °F 30.01 in NW 7.0 mph 13.0 mph 81 % 0.00 in 0 W/m2
02:00 43.3 °F 37.9 °F 30.01 in WNW 8.0 mph 14.0 mph 81 % 0.00 in 0 W/m2
02:05 43.3 °F 38.2 °F 30.01 in WNW 9.0 mph 15.0 mph 82 % 0.00 in 0 W/m2
02:10 43.5 °F 38.4 °F 30.01 in WNW 10.0 mph 20.0 mph 82 % 0.00 in 0 W/m2
02:15 43.5 °F 38.4 °F 30.01 in WNW 10.0 mph 21.0 mph 82 % 0.00 in 0 W/m2
02:20 43.5 °F 38.4 °F 30.01 in WNW 10.0 mph 21.0 mph 82 % 0.00 in 0 W/m2
02:25 43.5 °F 38.4 °F 30.01 in WNW 11.0 mph 19.0 mph 82 % 0.00 in 0 W/m2
02:30 43.5 °F 38.4 °F 30.00 in WNW 10.0 mph 19.0 mph 82 % 0.00 in 0 W/m2
02:35 43.3 °F 38.2 °F 30.01 in WNW 8.0 mph 14.0 mph 82 % 0.00 in 0 W/m2
02:40 43.3 °F 38.2 °F 30.01 in WNW 8.0 mph 14.0 mph 82 % 0.00 in 0 W/m2
02:45 43.3 °F 38.5 °F 30.01 in WNW 9.0 mph 16.0 mph 83 % 0.00 in 0 W/m2
02:50 43.2 °F 38.3 °F 30.00 in WNW 9.0 mph 16.0 mph 83 % 0.00 in 0 W/m2
02:55 43.2 °F 38.3 °F 30.00 in WNW 10.0 mph 18.0 mph 83 % 0.00 in 0 W/m2
03:00 43.2 °F 38.7 °F 30.00 in WNW 11.0 mph 18.0 mph 84 % 0.00 in 0 W/m2
03:05 43.2 °F 38.7 °F 30.00 in WNW 10.0 mph 18.0 mph 84 % 0.00 in 0 W/m2
03:10 43.2 °F 38.7 °F 30.00 in WNW 10.0 mph 19.0 mph 84 % 0.00 in 0 W/m2
03:15 43.3 °F 38.8 °F 30.00 in WNW 10.0 mph 19.0 mph 84 % 0.00 in 0 W/m2
03:20 43.5 °F 39.0 °F 30.00 in WNW 9.0 mph 18.0 mph 84 % 0.00 in 0 W/m2
03:25 43.5 °F 39.0 °F 30.00 in WNW 7.0 mph 18.0 mph 84 % 0.00 in 0 W/m2
03:30 43.5 °F 39.0 °F 30.00 in West 5.0 mph 12.0 mph 84 % 0.00 in 0 W/m2
03:35 43.3 °F 38.8 °F 30.00 in West 4.0 mph 10.0 mph 84 % 0.00 in 0 W/m2
03:40 43.3 °F 38.8 °F 30.00 in WNW 5.0 mph 10.0 mph 84 % 0.00 in 0 W/m2
03:45 43.3 °F 39.1 °F 30.00 in WNW 4.0 mph 9.0 mph 85 % 0.00 in 0 W/m2
03:50 43.3 °F 39.1 °F 30.00 in WNW 2.0 mph 8.0 mph 85 % 0.00 in 0 W/m2
03:55 43.2 °F 39.0 °F 30.01 in West 3.0 mph 10.0 mph 85 % 0.00 in 0 W/m2
04:00 43.2 °F 38.7 °F 30.00 in West 5.0 mph 10.0 mph 84 % 0.00 in 0 W/m2
04:05 43.0 °F 38.8 °F 30.00 in WNW 6.0 mph 14.0 mph 85 % 0.00 in 0 W/m2
04:10 43.0 °F 38.8 °F 29.99 in WNW 9.0 mph 19.0 mph 85 % 0.00 in 0 W/m2
04:15 43.2 °F 38.7 °F 29.99 in WNW 10.0 mph 19.0 mph 84 % 0.00 in 0 W/m2
04:20 43.2 °F 38.7 °F 30.00 in WNW 11.0 mph 24.0 mph 84 % 0.00 in 0 W/m2
04:25 43.2 °F 38.7 °F 30.00 in WNW 11.0 mph 24.0 mph 84 % 0.00 in 0 W/m2
04:30 43.2 °F 38.7 °F 30.00 in WNW 9.0 mph 15.0 mph 84 % 0.00 in 0 W/m2
04:35 43.0 °F 38.5 °F 30.00 in WNW 8.0 mph 13.0 mph 84 % 0.00 in 0 W/m2
04:40 43.0 °F 38.5 °F 30.00 in WNW 9.0 mph 15.0 mph 84 % 0.00 in 0 W/m2
04:45 42.8 °F 38.3 °F 29.99 in WNW 8.0 mph 15.0 mph 84 % 0.00 in 0 W/m2
04:50 42.8 °F 38.3 °F 29.99 in WNW 9.0 mph 16.0 mph 84 % 0.00 in 0 W/m2
04:55 42.6 °F 38.1 °F 30.00 in WNW 9.0 mph 16.0 mph 84 % 0.00 in 0 W/m2
05:00 42.6 °F 38.1 °F 30.00 in WNW 9.0 mph 14.0 mph 84 % 0.00 in 0 W/m2
05:05 42.6 °F 38.1 °F 30.00 in WNW 8.0 mph 14.0 mph 84 % 0.00 in 0 W/m2
05:06 42.6 °F 38.4 °F 29.99 in WNW 8.0 mph 13.0 mph 85 % 0.00 in 0 W/m2
05:12 42.4 °F 38.2 °F 30.00 in WNW 8.0 mph 13.0 mph 85 % 0.00 in 0 W/m2
05:17 42.4 °F 38.2 °F 30.00 in WNW 6.0 mph 13.0 mph 85 % 0.00 in 0 W/m2
05:22 42.4 °F 38.2 °F 30.00 in WNW 6.0 mph 13.0 mph 85 % 0.00 in 0 W/m2
05:27 42.4 °F 38.5 °F 30.00 in NW 7.0 mph 13.0 mph 86 % 0.00 in 0 W/m2
05:32 42.4 °F 38.5 °F 30.00 in NW 7.0 mph 13.0 mph 86 % 0.00 in 0 W/m2
05:37 42.6 °F 38.7 °F 30.00 in WNW 6.0 mph 13.0 mph 86 % 0.00 in 0 W/m2
05:42 42.6 °F 38.7 °F 30.00 in WNW 6.0 mph 11.0 mph 86 % 0.00 in 0 W/m2
05:47 42.6 °F 38.7 °F 30.00 in WNW 6.0 mph 12.0 mph 86 % 0.00 in 0 W/m2
05:52 42.6 °F 38.7 °F 30.00 in WNW 7.0 mph 12.0 mph 86 % 0.00 in 0 W/m2
05:57 42.4 °F 38.5 °F 30.00 in WNW 7.0 mph 13.0 mph 86 % 0.00 in 0 W/m2
06:02 42.6 °F 38.7 °F 30.00 in WNW 8.0 mph 14.0 mph 86 % 0.00 in 0 W/m2
06:07 42.6 °F 38.4 °F 30.00 in WNW 8.0 mph 15.0 mph 85 % 0.00 in 5 W/m2
06:12 42.6 °F 38.4 °F 30.00 in WNW 7.0 mph 15.0 mph 85 % 0.00 in 7 W/m2
06:17 42.6 °F 38.4 °F 30.00 in WNW 6.0 mph 11.0 mph 85 % 0.00 in 12 W/m2
06:22 43.0 °F 38.8 °F 30.00 in WNW 6.0 mph 11.0 mph 85 % 0.00 in 12 W/m2
06:27 43.0 °F 38.8 °F 30.00 in WNW 6.0 mph 11.0 mph 85 % 0.00 in 18 W/m2
06:32 43.2 °F 39.0 °F 30.00 in WNW 5.0 mph 12.0 mph 85 % 0.00 in 23 W/m2
06:37 43.3 °F 39.1 °F 30.00 in WNW 6.0 mph 13.0 mph 85 % 0.00 in 21 W/m2
06:42 43.5 °F 39.3 °F 30.00 in WNW 7.0 mph 13.0 mph 85 % 0.00 in 23 W/m2
06:47 43.5 °F 39.3 °F 30.00 in WNW 8.0 mph 14.0 mph 85 % 0.00 in 25 W/m2
06:52 43.7 °F 39.2 °F 30.00 in WNW 8.0 mph 15.0 mph 84 % 0.00 in 26 W/m2
06:53 43.7 °F 39.2 °F 30.01 in WNW 8.0 mph 15.0 mph 84 % 0.00 in 26 W/m2
06:58 43.7 °F 39.2 °F 30.01 in WNW 7.0 mph 15.0 mph 84 % 0.00 in 30 W/m2
07:03 43.5 °F 39.0 °F 30.00 in NW 8.0 mph 15.0 mph 84 % 0.00 in 33 W/m2
07:08 43.7 °F 39.2 °F 30.00 in WNW 10.0 mph 21.0 mph 84 % 0.00 in 37 W/m2
07:13 43.7 °F 39.2 °F 30.00 in WNW 11.0 mph 21.0 mph 84 % 0.00 in 44 W/m2
07:18 43.9 °F 39.1 °F 30.00 in WNW 11.0 mph 22.0 mph 83 % 0.00 in 51 W/m2
07:24 43.9 °F 39.1 °F 30.01 in WNW 11.0 mph 22.0 mph 83 % 0.00 in 60 W/m2
07:29 43.9 °F 39.1 °F 30.01 in WNW 10.0 mph 16.0 mph 83 % 0.00 in 74 W/m2
07:34 44.1 °F 39.2 °F 30.01 in WNW 9.0 mph 18.0 mph 83 % 0.00 in 97 W/m2
07:39 44.2 °F 39.4 °F 30.02 in WNW 7.0 mph 18.0 mph 83 % 0.00 in 186 W/m2
07:44 44.6 °F 39.8 °F 30.02 in WNW 5.0 mph 15.0 mph 83 % 0.00 in 195 W/m2
07:49 45.0 °F 39.8 °F 30.03 in WNW 5.0 mph 12.0 mph 82 % 0.00 in 200 W/m2
07:54 45.3 °F 39.8 °F 30.02 in WNW 5.0 mph 12.0 mph 81 % 0.00 in 183 W/m2
07:59 45.7 °F 40.2 °F 30.02 in WNW 7.0 mph 14.0 mph 81 % 0.00 in 158 W/m2
08:04 46.0 °F 40.2 °F 30.02 in WNW 8.0 mph 18.0 mph 80 % 0.00 in 167 W/m2
08:05 46.0 °F 40.2 °F 30.02 in WNW 9.0 mph 18.0 mph 80 % 0.00 in 125 W/m2
08:10 46.0 °F 40.2 °F 30.03 in WNW 8.0 mph 18.0 mph 80 % 0.00 in 125 W/m2
08:15 46.2 °F 40.4 °F 30.03 in WNW 8.0 mph 19.0 mph 80 % 0.00 in 153 W/m2
08:20 46.2 °F 40.4 °F 30.03 in WNW 9.0 mph 19.0 mph 80 % 0.00 in 114 W/m2
08:25 46.2 °F 40.4 °F 30.03 in WNW 9.0 mph 16.0 mph 80 % 0.00 in 214 W/m2
08:30 46.4 °F 40.6 °F 30.03 in WNW 9.0 mph 19.0 mph 80 % 0.00 in 116 W/m2
08:35 46.6 °F 40.7 °F 30.03 in WNW 8.0 mph 19.0 mph 80 % 0.00 in 171 W/m2
08:40 46.6 °F 40.4 °F 30.03 in WNW 9.0 mph 14.0 mph 79 % 0.00 in 167 W/m2
08:45 46.8 °F 40.6 °F 30.03 in WNW 9.0 mph 14.0 mph 79 % 0.00 in 105 W/m2
08:51 46.8 °F 40.6 °F 30.03 in WNW 8.0 mph 12.0 mph 79 % 0.00 in 139 W/m2
08:56 46.8 °F 40.9 °F 30.03 in WNW 9.0 mph 15.0 mph 80 % 0.00 in 311 W/m2
09:01 47.3 °F 41.4 °F 30.03 in WNW 10.0 mph 15.0 mph 80 % 0.00 in 462 W/m2
09:06 47.8 °F 41.6 °F 30.03 in WNW 9.0 mph 15.0 mph 79 % 0.00 in 483 W/m2
09:11 48.7 °F 42.2 °F 30.03 in WNW 9.0 mph 15.0 mph 78 % 0.00 in 522 W/m2
09:16 49.3 °F 42.0 °F 30.03 in WNW 9.0 mph 15.0 mph 76 % 0.00 in 450 W/m2
09:21 49.6 °F 42.0 °F 30.03 in WNW 9.0 mph 15.0 mph 75 % 0.00 in 327 W/m2
09:26 49.6 °F 41.3 °F 30.03 in WNW 9.0 mph 19.0 mph 73 % 0.00 in 311 W/m2
09:31 49.8 °F 41.5 °F 30.03 in WNW 10.0 mph 18.0 mph 73 % 0.00 in 338 W/m2
09:36 50.4 °F 41.7 °F 30.03 in WNW 11.0 mph 18.0 mph 72 % 0.00 in 441 W/m2
09:41 50.4 °F 41.3 °F 30.03 in WNW 12.0 mph 18.0 mph 71 % 0.00 in 418 W/m2
09:46 50.4 °F 41.7 °F 30.03 in WNW 11.0 mph 18.0 mph 72 % 0.00 in 548 W/m2
09:51 50.7 °F 41.3 °F 30.03 in WNW 11.0 mph 19.0 mph 70 % 0.00 in 559 W/m2
09:56 51.1 °F 41.3 °F 30.03 in WNW 12.0 mph 23.0 mph 69 % 0.00 in 313 W/m2
10:01 50.9 °F 41.1 °F 30.03 in WNW 12.0 mph 23.0 mph 69 % 0.00 in 450 W/m2
10:06 50.9 °F 41.1 °F 30.03 in WNW 12.0 mph 23.0 mph 69 % 0.00 in 615 W/m2
10:11 51.1 °F 41.3 °F 30.03 in WNW 12.0 mph 20.0 mph 69 % 0.00 in 615 W/m2
10:16 51.4 °F 42.0 °F 30.03 in WNW 12.0 mph 20.0 mph 70 % 0.00 in 638 W/m2
10:21 51.6 °F 41.4 °F 30.03 in WNW 12.0 mph 21.0 mph 68 % 0.00 in 624 W/m2
10:26 52.0 °F 41.7 °F 30.03 in WNW 11.0 mph 21.0 mph 68 % 0.00 in 670 W/m2
10:31 52.2 °F 41.1 °F 30.03 in WNW 11.0 mph 20.0 mph 66 % 0.00 in 777 W/m2
10:36 52.5 °F 41.1 °F 30.03 in WNW 12.0 mph 20.0 mph 65 % 0.00 in 367 W/m2
10:41 52.5 °F 40.7 °F 30.03 in WNW 11.0 mph 21.0 mph 64 % 0.00 in 396 W/m2
10:46 52.3 °F 40.9 °F 30.04 in WNW 11.0 mph 21.0 mph 65 % 0.00 in 304 W/m2
10:51 52.2 °F 40.7 °F 30.04 in West 11.0 mph 18.0 mph 65 % 0.00 in 225 W/m2
10:56 51.6 °F 40.6 °F 30.04 in WNW 10.0 mph 16.0 mph 66 % 0.00 in 236 W/m2
11:01 51.4 °F 40.8 °F 30.04 in WNW 8.0 mph 15.0 mph 67 % 0.00 in 348 W/m2
11:06 51.6 °F 41.4 °F 30.04 in WNW 8.0 mph 15.0 mph 68 % 0.00 in 383 W/m2
11:11 52.3 °F 41.3 °F 30.04 in WNW 9.0 mph 21.0 mph 66 % 0.00 in 902 W/m2
11:16 52.7 °F 40.5 °F 30.04 in WNW 11.0 mph 21.0 mph 63 % 0.00 in 446 W/m2
11:21 53.1 °F 41.2 °F 30.04 in WNW 11.0 mph 19.0 mph 64 % 0.00 in 930 W/m2
11:26 54.0 °F 42.1 °F 30.03 in WNW 10.0 mph 21.0 mph 64 % 0.00 in 1081 W/m2
11:31 54.7 °F 41.9 °F 30.03 in WNW 12.0 mph 21.0 mph 62 % 0.00 in 1041 W/m2
11:36 54.7 °F 41.9 °F 30.03 in WNW 12.0 mph 20.0 mph 62 % 0.00 in 283 W/m2
11:41 54.3 °F 42.0 °F 30.03 in WNW 10.0 mph 20.0 mph 63 % 0.00 in 921 W/m2
11:46 54.0 °F 41.2 °F 30.03 in West 10.0 mph 15.0 mph 62 % 0.00 in 378 W/m2
11:52 53.2 °F 41.4 °F 30.03 in West 10.0 mph 15.0 mph 64 % 0.00 in 236 W/m2
11:56 53.1 °F 41.2 °F 30.03 in WNW 10.0 mph 16.0 mph 64 % 0.00 in 329 W/m2
12:02 53.2 °F 41.8 °F 30.02 in WNW 9.0 mph 16.0 mph 65 % 0.00 in 330 W/m2
12:07 53.2 °F 41.0 °F 30.02 in West 9.0 mph 16.0 mph 63 % 0.00 in 345 W/m2
12:12 53.1 °F 40.4 °F 30.02 in WNW 10.0 mph 19.0 mph 62 % 0.00 in 394 W/m2
12:17 52.9 °F 41.0 °F 30.02 in WNW 11.0 mph 19.0 mph 64 % 0.00 in 279 W/m2
12:22 52.9 °F 41.0 °F 30.02 in WNW 11.0 mph 21.0 mph 64 % 0.00 in 345 W/m2
12:27 53.2 °F 41.4 °F 30.02 in WNW 11.0 mph 21.0 mph 64 % 0.00 in 490 W/m2
12:32 53.2 °F 41.0 °F 30.02 in WNW 11.0 mph 16.0 mph 63 % 0.00 in 297 W/m2
12:37 53.1 °F 40.8 °F 30.02 in WNW 11.0 mph 16.0 mph 63 % 0.00 in 403 W/m2
12:42 53.4 °F 40.7 °F 30.02 in WNW 11.0 mph 16.0 mph 62 % 0.00 in 1023 W/m2
12:47 54.0 °F 40.4 °F 30.02 in WNW 11.0 mph 20.0 mph 60 % 0.00 in 278 W/m2
12:52 54.0 °F 40.8 °F 30.02 in WNW 11.0 mph 20.0 mph 61 % 0.00 in 364 W/m2
12:57 54.0 °F 40.4 °F 30.02 in WNW 10.0 mph 19.0 mph 60 % 0.00 in 396 W/m2
13:02 53.8 °F 39.8 °F 30.02 in WNW 11.0 mph 19.0 mph 59 % 0.00 in 381 W/m2
13:07 54.0 °F 40.4 °F 30.02 in West 11.0 mph 19.0 mph 60 % 0.00 in 323 W/m2
13:12 54.0 °F 40.4 °F 30.02 in West 11.0 mph 19.0 mph 60 % 0.00 in 260 W/m2
13:17 53.8 °F 40.6 °F 30.02 in WNW 11.0 mph 21.0 mph 61 % 0.00 in 253 W/m2
13:22 53.4 °F 40.3 °F 30.02 in WNW 11.0 mph 21.0 mph 61 % 0.00 in 329 W/m2
13:27 53.2 °F 40.5 °F 30.02 in WNW 10.0 mph 16.0 mph 62 % 0.00 in 278 W/m2
13:32 53.1 °F 40.4 °F 30.02 in West 10.0 mph 15.0 mph 62 % 0.00 in 357 W/m2
13:37 53.1 °F 40.4 °F 30.02 in West 9.0 mph 15.0 mph 62 % 0.00 in 371 W/m2
13:38 53.1 °F 40.4 °F 30.02 in West 9.0 mph 15.0 mph 62 % 0.00 in 371 W/m2
13:43 53.2 °F 40.5 °F 30.02 in West 10.0 mph 19.0 mph 62 % 0.00 in 357 W/m2
13:48 53.2 °F 40.5 °F 30.02 in WNW 10.0 mph 19.0 mph 62 % 0.00 in 220 W/m2
13:53 53.1 °F 40.4 °F 30.02 in West 10.0 mph 19.0 mph 62 % 0.00 in 287 W/m2
13:58 52.9 °F 40.2 °F 30.02 in West 12.0 mph 21.0 mph 62 % 0.00 in 251 W/m2
14:03 52.7 °F 40.0 °F 30.02 in WNW 12.0 mph 21.0 mph 62 % 0.00 in 269 W/m2
14:08 52.5 °F 40.3 °F 30.02 in WNW 11.0 mph 20.0 mph 63 % 0.00 in 199 W/m2
14:13 52.5 °F 40.7 °F 30.02 in WNW 9.0 mph 20.0 mph 64 % 0.00 in 167 W/m2
14:18 52.5 °F 40.7 °F 30.02 in WNW 10.0 mph 16.0 mph 64 % 0.00 in 246 W/m2
14:23 52.5 °F 40.7 °F 30.02 in WNW 10.0 mph 16.0 mph 64 % 0.00 in 322 W/m2
14:28 52.9 °F 41.0 °F 30.02 in WNW 10.0 mph 16.0 mph 64 % 0.00 in 274 W/m2
14:33 52.9 °F 40.6 °F 30.02 in WNW 9.0 mph 15.0 mph 63 % 0.00 in 274 W/m2
14:38 53.1 °F 40.8 °F 30.02 in WNW 9.0 mph 20.0 mph 63 % 0.00 in 285 W/m2
14:43 53.1 °F 40.4 °F 30.02 in WNW 10.0 mph 20.0 mph 62 % 0.00 in 200 W/m2
14:48 52.7 °F 40.0 °F 30.02 in WNW 11.0 mph 20.0 mph 62 % 0.00 in 155 W/m2
14:53 52.5 °F 40.3 °F 30.02 in WNW 10.0 mph 20.0 mph 63 % 0.00 in 186 W/m2
14:58 52.3 °F 40.1 °F 30.02 in WNW 9.0 mph 19.0 mph 63 % 0.00 in 253 W/m2
15:03 52.3 °F 40.5 °F 30.02 in WNW 10.0 mph 19.0 mph 64 % 0.00 in 257 W/m2
15:08 52.3 °F 40.1 °F 30.02 in WNW 10.0 mph 19.0 mph 63 % 0.00 in 281 W/m2
15:13 52.3 °F 40.1 °F 30.02 in WNW 11.0 mph 20.0 mph 63 % 0.00 in 380 W/m2
15:18 52.7 °F 40.5 °F 30.02 in WNW 12.0 mph 22.0 mph 63 % 0.00 in 403 W/m2
15:23 53.1 °F 40.4 °F 30.02 in WNW 12.0 mph 22.0 mph 62 % 0.00 in 403 W/m2
15:28 53.2 °F 41.0 °F 30.02 in West 12.0 mph 21.0 mph 63 % 0.00 in 485 W/m2
15:33 53.6 °F 40.5 °F 30.02 in West 13.0 mph 19.0 mph 61 % 0.00 in 599 W/m2
15:38 53.4 °F 40.3 °F 30.02 in West 12.0 mph 19.0 mph 61 % 0.00 in 241 W/m2
15:43 53.2 °F 40.5 °F 30.02 in West 9.0 mph 18.0 mph 62 % 0.00 in 192 W/m2
15:48 53.4 °F 39.9 °F 30.02 in WNW 9.0 mph 18.0 mph 60 % 0.00 in 160 W/m2
15:53 53.2 °F 39.7 °F 30.02 in WNW 10.0 mph 19.0 mph 60 % 0.00 in 172 W/m2
15:58 52.9 °F 39.8 °F 30.02 in WNW 11.0 mph 20.0 mph 61 % 0.00 in 162 W/m2
16:03 52.5 °F 39.9 °F 30.02 in WNW 12.0 mph 22.0 mph 62 % 0.00 in 144 W/m2
16:08 52.2 °F 39.9 °F 30.02 in WNW 12.0 mph 22.0 mph 63 % 0.00 in 125 W/m2
16:13 52.0 °F 40.2 °F 30.02 in WNW 12.0 mph 20.0 mph 64 % 0.00 in 144 W/m2
16:18 51.6 °F 39.8 °F 30.02 in WNW 12.0 mph 20.0 mph 64 % 0.00 in 188 W/m2
16:23 51.6 °F 40.6 °F 30.02 in West 11.0 mph 19.0 mph 66 % 0.00 in 176 W/m2
16:28 51.6 °F 40.2 °F 30.02 in WNW 12.0 mph 19.0 mph 65 % 0.00 in 209 W/m2
16:33 51.4 °F 40.1 °F 30.02 in WNW 12.0 mph 20.0 mph 65 % 0.00 in 179 W/m2
16:38 51.4 °F 40.1 °F 30.02 in West 12.0 mph 20.0 mph 65 % 0.00 in 223 W/m2
16:43 51.4 °F 40.1 °F 30.02 in West 11.0 mph 19.0 mph 65 % 0.00 in 248 W/m2
16:48 51.4 °F 40.1 °F 30.01 in West 12.0 mph 19.0 mph 65 % 0.00 in 192 W/m2
16:53 51.4 °F 40.1 °F 30.01 in West 12.0 mph 19.0 mph 65 % 0.00 in 251 W/m2
16:59 51.6 °F 40.6 °F 30.01 in West 10.0 mph 18.0 mph 66 % 0.00 in 199 W/m2
17:04 52.0 °F 41.0 °F 30.01 in WNW 9.0 mph 14.0 mph 66 % 0.00 in 243 W/m2
17:09 52.2 °F 40.3 °F 30.01 in WNW 10.0 mph 18.0 mph 64 % 0.00 in 151 W/m2
17:14 52.2 °F 40.3 °F 30.01 in West 11.0 mph 18.0 mph 64 % 0.00 in 139 W/m2
17:19 51.8 °F 40.4 °F 30.01 in West 11.0 mph 16.0 mph 65 % 0.00 in 81 W/m2
17:24 51.4 °F 40.1 °F 30.01 in West 10.0 mph 16.0 mph 65 % 0.00 in 83 W/m2
17:29 51.3 °F 39.9 °F 30.01 in West 10.0 mph 16.0 mph 65 % 0.00 in 81 W/m2
17:34 51.3 °F 39.9 °F 30.01 in West 9.0 mph 15.0 mph 65 % 0.00 in 67 W/m2
17:39 51.1 °F 40.1 °F 30.01 in WNW 8.0 mph 15.0 mph 66 % 0.00 in 76 W/m2
17:44 51.1 °F 40.5 °F 30.01 in West 8.0 mph 13.0 mph 67 % 0.00 in 54 W/m2
17:49 50.9 °F 39.9 °F 30.01 in West 8.0 mph 15.0 mph 66 % 0.00 in 49 W/m2
17:54 50.7 °F 39.8 °F 30.02 in West 9.0 mph 18.0 mph 66 % 0.00 in 49 W/m2
17:59 50.5 °F 39.6 °F 30.01 in West 9.0 mph 18.0 mph 66 % 0.00 in 49 W/m2
18:04 50.5 °F 40.0 °F 30.02 in WNW 9.0 mph 18.0 mph 67 % 0.00 in 44 W/m2
18:09 50.4 °F 39.8 °F 30.02 in WNW 8.0 mph 14.0 mph 67 % 0.00 in 37 W/m2
18:14 50.4 °F 40.2 °F 30.01 in WNW 8.0 mph 14.0 mph 68 % 0.00 in 46 W/m2
18:19 50.2 °F 39.6 °F 30.02 in WNW 9.0 mph 15.0 mph 67 % 0.00 in 35 W/m2
18:24 50.0 °F 39.8 °F 30.01 in West 11.0 mph 19.0 mph 68 % 0.00 in 37 W/m2
18:29 49.8 °F 40.1 °F 30.01 in WNW 11.0 mph 19.0 mph 69 % 0.00 in 46 W/m2
18:34 49.6 °F 39.9 °F 30.01 in WNW 10.0 mph 16.0 mph 69 % 0.00 in 58 W/m2
18:39 49.6 °F 39.9 °F 30.01 in WNW 10.0 mph 18.0 mph 69 % 0.00 in 56 W/m2
18:44 49.5 °F 39.7 °F 30.01 in WNW 9.0 mph 18.0 mph 69 % 0.00 in 63 W/m2
18:49 49.5 °F 39.7 °F 30.01 in WNW 8.0 mph 13.0 mph 69 % 0.00 in 58 W/m2
18:54 49.5 °F 39.7 °F 30.01 in WNW 7.0 mph 13.0 mph 69 % 0.00 in 42 W/m2
18:59 49.5 °F 39.7 °F 30.01 in West 6.0 mph 13.0 mph 69 % 0.00 in 28 W/m2
19:04 49.5 °F 39.7 °F 30.01 in West 6.0 mph 11.0 mph 69 % 0.00 in 21 W/m2
19:09 49.5 °F 39.3 °F 30.01 in WNW 6.0 mph 10.0 mph 68 % 0.00 in 23 W/m2
19:14 49.5 °F 39.0 °F 30.01 in West 7.0 mph 15.0 mph 67 % 0.00 in 26 W/m2
19:19 49.3 °F 38.8 °F 30.01 in West 8.0 mph 15.0 mph 67 % 0.00 in 21 W/m2
19:20 49.3 °F 39.2 °F 30.01 in West 8.0 mph 15.0 mph 68 % 0.00 in 21 W/m2
19:25 49.3 °F 39.2 °F 30.01 in West 7.0 mph 12.0 mph 68 % 0.00 in 19 W/m2
19:30 49.3 °F 39.2 °F 30.01 in West 7.0 mph 12.0 mph 68 % 0.00 in 16 W/m2
19:35 49.3 °F 39.2 °F 30.01 in West 7.0 mph 11.0 mph 68 % 0.00 in 12 W/m2
19:40 49.1 °F 39.4 °F 30.01 in West 7.0 mph 12.0 mph 69 % 0.00 in 9 W/m2
19:45 49.1 °F 39.4 °F 30.01 in WNW 7.0 mph 12.0 mph 69 % 0.00 in 7 W/m2
19:50 49.1 °F 39.4 °F 30.01 in WNW 7.0 mph 11.0 mph 69 % 0.00 in 7 W/m2
19:55 48.9 °F 39.2 °F 30.01 in WNW 7.0 mph 11.0 mph 69 % 0.00 in 5 W/m2
20:00 48.9 °F 39.6 °F 30.01 in WNW 7.0 mph 11.0 mph 70 % 0.00 in 5 W/m2
20:05 48.7 °F 39.4 °F 30.01 in WNW 6.0 mph 10.0 mph 70 % 0.00 in 5 W/m2
20:10 48.6 °F 39.6 °F 30.01 in WNW 6.0 mph 9.0 mph 71 % 0.00 in 0 W/m2
20:15 48.6 °F 39.6 °F 30.01 in WNW 5.0 mph 9.0 mph 71 % 0.00 in 0 W/m2
20:20 48.4 °F 39.4 °F 30.01 in WNW 6.0 mph 9.0 mph 71 % 0.00 in 0 W/m2
20:25 48.0 °F 39.1 °F 30.01 in WNW 6.0 mph 10.0 mph 71 % 0.00 in 0 W/m2
20:30 48.0 °F 39.1 °F 30.01 in WNW 5.0 mph 10.0 mph 71 % 0.00 in 0 W/m2
20:35 47.8 °F 38.9 °F 30.01 in WNW 4.0 mph 9.0 mph 71 % 0.00 in 0 W/m2
20:41 47.7 °F 38.7 °F 30.02 in WNW 3.0 mph 7.0 mph 71 % 0.00 in 0 W/m2
20:46 47.5 °F 38.9 °F 30.02 in WNW 3.0 mph 7.0 mph 72 % 0.00 in 0 W/m2
20:51 47.3 °F 38.7 °F 30.02 in NW 2.0 mph 7.0 mph 72 % 0.00 in 0 W/m2
20:56 47.1 °F 38.6 °F 30.02 in NW 2.0 mph 6.0 mph 72 % 0.00 in 0 W/m2
21:01 47.1 °F 38.9 °F 30.02 in WNW 4.0 mph 9.0 mph 73 % 0.00 in 0 W/m2
21:06 46.9 °F 38.7 °F 30.02 in WNW 5.0 mph 9.0 mph 73 % 0.00 in 0 W/m2
21:11 46.8 °F 38.9 °F 30.02 in WNW 5.0 mph 9.0 mph 74 % 0.00 in 0 W/m2
21:16 46.8 °F 38.9 °F 30.02 in WNW 4.0 mph 9.0 mph 74 % 0.00 in 0 W/m2
21:21 46.6 °F 38.7 °F 30.02 in WNW 2.0 mph 7.0 mph 74 % 0.00 in 0 W/m2
21:26 46.6 °F 39.1 °F 30.02 in WNW 1.0 mph 7.0 mph 75 % 0.00 in 0 W/m2
21:31 46.4 °F 38.9 °F 30.02 in WNW 1.0 mph 7.0 mph 75 % 0.00 in 0 W/m2
21:36 46.4 °F 38.9 °F 30.02 in NW 1.0 mph 6.0 mph 75 % 0.00 in 0 W/m2
21:41 46.4 °F 39.2 °F 30.02 in NW 1.0 mph 5.0 mph 76 % 0.00 in 0 W/m2
21:46 46.4 °F 39.2 °F 30.02 in West 1.0 mph 6.0 mph 76 % 0.00 in 0 W/m2
21:51 46.6 °F 39.4 °F 30.02 in WSW 1.0 mph 6.0 mph 76 % 0.00 in 0 W/m2
21:56 46.6 °F 39.4 °F 30.02 in Calm   3.0 mph 76 % 0.00 in 0 W/m2
22:01 46.6 °F 39.4 °F 30.02 in Calm   1.0 mph 76 % 0.00 in 0 W/m2
22:06 46.8 °F 39.9 °F 30.02 in Calm   3.0 mph 77 % 0.00 in 0 W/m2
22:11 46.8 °F 39.6 °F 30.02 in SW 1.0 mph 5.0 mph 76 % 0.00 in 0 W/m2
22:16 46.6 °F 39.4 °F 30.02 in SW 3.0 mph 6.0 mph 76 % 0.00 in 0 W/m2
22:21 46.6 °F 39.8 °F 30.02 in SW 2.0 mph 6.0 mph 77 % 0.00 in 0 W/m2
22:26 46.6 °F 39.8 °F 30.02 in SW 2.0 mph 6.0 mph 77 % 0.00 in 0 W/m2
22:31 46.6 °F 39.8 °F 30.02 in WSW 3.0 mph 6.0 mph 77 % 0.00 in 0 W/m2
22:36 46.6 °F 39.8 °F 30.02 in WSW 2.0 mph 6.0 mph 77 % 0.00 in 0 W/m2
22:41 46.6 °F 39.8 °F 30.02 in WSW 2.0 mph 5.0 mph 77 % 0.00 in 0 W/m2
22:46 46.6 °F 39.8 °F 30.01 in WSW 2.0 mph 6.0 mph 77 % 0.00 in 0 W/m2
22:51 46.6 °F 39.8 °F 30.01 in WSW 3.0 mph 7.0 mph 77 % 0.00 in 0 W/m2
22:56 46.6 °F 39.8 °F 30.01 in WSW 3.0 mph 7.0 mph 77 % 0.00 in 0 W/m2
23:01 46.6 °F 40.1 °F 30.01 in West 3.0 mph 7.0 mph 78 % 0.00 in 0 W/m2
23:06 46.6 °F 40.1 °F 30.01 in West 3.0 mph 6.0 mph 78 % 0.00 in 0 W/m2
23:11 46.6 °F 40.1 °F 30.01 in West 2.0 mph 6.0 mph 78 % 0.00 in 0 W/m2
23:16 46.6 °F 40.4 °F 30.01 in West 2.0 mph 6.0 mph 79 % 0.00 in 0 W/m2
23:21 46.6 °F 40.4 °F 30.02 in West 2.0 mph 6.0 mph 79 % 0.00 in 0 W/m2
23:26 46.6 °F 40.4 °F 30.02 in West 2.0 mph 6.0 mph 79 % 0.00 in 0 W/m2
23:32 46.6 °F 40.4 °F 30.01 in West 3.0 mph 7.0 mph 79 % 0.00 in 0 W/m2
23:37 46.8 °F 40.6 °F 30.01 in WNW 4.0 mph 8.0 mph 79 % 0.00 in 0 W/m2
23:42 46.8 °F 40.6 °F 30.01 in WNW 5.0 mph 8.0 mph 79 % 0.00 in 0 W/m2
23:47 46.8 °F 40.6 °F 30.01 in WNW 5.0 mph 12.0 mph 79 % 0.00 in 0 W/m2
23:52 46.8 °F 40.6 °F 30.01 in WNW 6.0 mph 12.0 mph 79 % 0.00 in 0 W/m2
23:57 46.8 °F 40.6 °F 30.01 in West 7.0 mph 11.0 mph 79 % 0.00 in 0 W/m2
Delerius-Weather
Compliments of Weather Underground - 2.25 mb

Data updates at regular intervals.